sensor_id;sensor_type;location;lat;lon;timestamp;pressure;altitude;pressure_sealevel;temperature;humidity
26531;BME280;14201;43.188;24.160;2024-02-16T00:01:04;100415.38;;;6.16;80.67
26531;BME280;14201;43.188;24.160;2024-02-16T00:03:30;100412.03;;;6.05;80.78
26531;BME280;14201;43.188;24.160;2024-02-16T00:05:56;100408.00;;;5.97;80.52
26531;BME280;14201;43.188;24.160;2024-02-16T00:08:21;100405.84;;;5.91;80.19
26531;BME280;14201;43.188;24.160;2024-02-16T00:10:47;100413.06;;;5.96;80.34
26531;BME280;14201;43.188;24.160;2024-02-16T00:13:13;100413.19;;;5.97;80.05
26531;BME280;14201;43.188;24.160;2024-02-16T00:15:38;100410.91;;;6.02;79.90
26531;BME280;14201;43.188;24.160;2024-02-16T00:18:04;100407.44;;;6.13;78.69
26531;BME280;14201;43.188;24.160;2024-02-16T00:20:29;100413.94;;;6.20;77.57
26531;BME280;14201;43.188;24.160;2024-02-16T00:22:56;100418.06;;;6.29;77.89
26531;BME280;14201;43.188;24.160;2024-02-16T00:25:22;100420.09;;;6.34;76.87
26531;BME280;14201;43.188;24.160;2024-02-16T00:27:47;100417.09;;;6.16;77.04
26531;BME280;14201;43.188;24.160;2024-02-16T00:30:13;100424.28;;;6.20;77.87
26531;BME280;14201;43.188;24.160;2024-02-16T00:32:41;100420.22;;;6.23;77.83
26531;BME280;14201;43.188;24.160;2024-02-16T00:35:06;100420.22;;;6.23;78.08
26531;BME280;14201;43.188;24.160;2024-02-16T00:37:31;100420.66;;;6.29;78.35
26531;BME280;14201;43.188;24.160;2024-02-16T00:39:57;100416.19;;;6.27;79.19
26531;BME280;14201;43.188;24.160;2024-02-16T00:42:22;100418.00;;;6.04;79.33
26531;BME280;14201;43.188;24.160;2024-02-16T00:44:52;100416.19;;;6.15;79.31
26531;BME280;14201;43.188;24.160;2024-02-16T00:47:18;100417.88;;;6.26;79.40
26531;BME280;14201;43.188;24.160;2024-02-16T00:49:43;100418.53;;;6.12;78.90
26531;BME280;14201;43.188;24.160;2024-02-16T00:52:09;100424.38;;;6.21;78.09
26531;BME280;14201;43.188;24.160;2024-02-16T00:54:35;100418.44;;;6.22;77.59
26531;BME280;14201;43.188;24.160;2024-02-16T00:57:01;100412.38;;;6.10;78.38
26531;BME280;14201;43.188;24.160;2024-02-16T00:59:30;100412.16;;;6.07;78.44
26531;BME280;14201;43.188;24.160;2024-02-16T01:01:56;100410.13;;;6.26;78.47
26531;BME280;14201;43.188;24.160;2024-02-16T01:04:21;100413.31;;;6.59;78.13
26531;BME280;14201;43.188;24.160;2024-02-16T01:06:47;100406.84;;;6.66;76.18
26531;BME280;14201;43.188;24.160;2024-02-16T01:09:13;100418.91;;;6.65;76.07
26531;BME280;14201;43.188;24.160;2024-02-16T01:11:41;100416.28;;;6.77;75.24
26531;BME280;14201;43.188;24.160;2024-02-16T01:14:07;100416.75;;;6.72;75.65
26531;BME280;14201;43.188;24.160;2024-02-16T01:16:32;100413.38;;;6.61;76.24
26531;BME280;14201;43.188;24.160;2024-02-16T01:18:58;100423.69;;;6.73;75.42
26531;BME280;14201;43.188;24.160;2024-02-16T01:21:23;100429.38;;;6.55;76.53
26531;BME280;14201;43.188;24.160;2024-02-16T01:23:49;100426.31;;;6.61;76.42
26531;BME280;14201;43.188;24.160;2024-02-16T01:26:14;100419.91;;;6.67;75.75
26531;BME280;14201;43.188;24.160;2024-02-16T01:28:41;100425.09;;;6.67;75.73
26531;BME280;14201;43.188;24.160;2024-02-16T01:31:06;100421.56;;;6.79;75.36
26531;BME280;14201;43.188;24.160;2024-02-16T01:33:34;100416.28;;;6.77;74.95
26531;BME280;14201;43.188;24.160;2024-02-16T01:36:00;100424.34;;;6.82;73.98
26531;BME280;14201;43.188;24.160;2024-02-16T01:38:26;100417.00;;;6.88;74.23
26531;BME280;14201;43.188;24.160;2024-02-16T01:40:51;100420.59;;;6.90;74.44
26531;BME280;14201;43.188;24.160;2024-02-16T01:43:20;100416.00;;;6.86;74.42
26531;BME280;14201;43.188;24.160;2024-02-16T01:45:46;100407.94;;;6.81;74.67
26531;BME280;14201;43.188;24.160;2024-02-16T01:48:11;100409.28;;;6.76;75.28
26531;BME280;14201;43.188;24.160;2024-02-16T01:50:37;100407.38;;;6.74;75.75
26531;BME280;14201;43.188;24.160;2024-02-16T01:53:03;100410.03;;;6.87;76.02
26531;BME280;14201;43.188;24.160;2024-02-16T01:55:29;100400.03;;;6.80;76.86
26531;BME280;14201;43.188;24.160;2024-02-16T01:57:54;100402.06;;;6.84;76.87
26531;BME280;14201;43.188;24.160;2024-02-16T02:00:20;100391.09;;;6.88;75.71
26531;BME280;14201;43.188;24.160;2024-02-16T02:02:46;100405.63;;;6.86;76.05
26531;BME280;14201;43.188;24.160;2024-02-16T02:05:12;100403.63;;;6.82;75.59
26531;BME280;14201;43.188;24.160;2024-02-16T02:07:38;100409.16;;;6.86;75.31
26531;BME280;14201;43.188;24.160;2024-02-16T02:10:03;100401.38;;;6.86;74.88
26531;BME280;14201;43.188;24.160;2024-02-16T02:12:29;100407.47;;;6.87;74.42
26531;BME280;14201;43.188;24.160;2024-02-16T02:14:54;100406.16;;;6.68;75.55
26531;BME280;14201;43.188;24.160;2024-02-16T02:17:20;100405.53;;;6.59;76.46
26531;BME280;14201;43.188;24.160;2024-02-16T02:19:45;100404.88;;;6.50;76.64
26531;BME280;14201;43.188;24.160;2024-02-16T02:22:15;100407.22;;;6.59;77.19
26531;BME280;14201;43.188;24.160;2024-02-16T02:24:40;100408.56;;;6.65;76.67
26531;BME280;14201;43.188;24.160;2024-02-16T02:27:06;100405.56;;;6.73;76.29
26531;BME280;14201;43.188;24.160;2024-02-16T02:29:32;100405.22;;;6.80;75.79
26531;BME280;14201;43.188;24.160;2024-02-16T02:31:58;100398.69;;;6.85;75.07
26531;BME280;14201;43.188;24.160;2024-02-16T02:34:24;100409.03;;;6.85;74.83
26531;BME280;14201;43.188;24.160;2024-02-16T02:36:49;100412.63;;;6.87;75.03
26531;BME280;14201;43.188;24.160;2024-02-16T02:39:15;100415.28;;;7.00;72.87
26531;BME280;14201;43.188;24.160;2024-02-16T02:41:40;100416.44;;;6.92;73.50
26531;BME280;14201;43.188;24.160;2024-02-16T02:44:06;100408.34;;;6.87;74.12
26531;BME280;14201;43.188;24.160;2024-02-16T02:46:31;100409.56;;;6.67;74.45
26531;BME280;14201;43.188;24.160;2024-02-16T02:48:57;100408.22;;;6.86;73.92
26531;BME280;14201;43.188;24.160;2024-02-16T02:51:22;100398.88;;;6.88;73.40
26531;BME280;14201;43.188;24.160;2024-02-16T02:53:47;100402.44;;;6.77;73.74
26531;BME280;14201;43.188;24.160;2024-02-16T02:56:13;100407.75;;;6.66;73.92
26531;BME280;14201;43.188;24.160;2024-02-16T02:58:41;100395.38;;;6.62;74.63
26531;BME280;14201;43.188;24.160;2024-02-16T03:01:06;100403.59;;;6.57;75.05
26531;BME280;14201;43.188;24.160;2024-02-16T03:03:33;100408.59;;;6.54;75.76
26531;BME280;14201;43.188;24.160;2024-02-16T03:05:59;100406.00;;;6.54;76.37
26531;BME280;14201;43.188;24.160;2024-02-16T03:08:24;100405.31;;;6.56;76.50
26531;BME280;14201;43.188;24.160;2024-02-16T03:10:50;100405.03;;;6.65;76.21
26531;BME280;14201;43.188;24.160;2024-02-16T03:13:15;100406.44;;;6.60;75.78
26531;BME280;14201;43.188;24.160;2024-02-16T03:15:43;100404.66;;;6.47;76.15
26531;BME280;14201;43.188;24.160;2024-02-16T03:18:08;100406.31;;;6.58;76.82
26531;BME280;14201;43.188;24.160;2024-02-16T03:20:37;100410.34;;;6.66;76.60
26531;BME280;14201;43.188;24.160;2024-02-16T03:23:02;100408.63;;;6.79;75.35
26531;BME280;14201;43.188;24.160;2024-02-16T03:25:28;100415.22;;;6.87;74.63
26531;BME280;14201;43.188;24.160;2024-02-16T03:27:53;100410.34;;;6.66;76.67
26531;BME280;14201;43.188;24.160;2024-02-16T03:30:19;100421.41;;;6.52;76.42
26531;BME280;14201;43.188;24.160;2024-02-16T03:32:51;100415.53;;;6.55;76.59
26531;BME280;14201;43.188;24.160;2024-02-16T03:35:20;100416.13;;;6.50;76.60
26531;BME280;14201;43.188;24.160;2024-02-16T03:37:45;100414.66;;;6.54;75.69
26531;BME280;14201;43.188;24.160;2024-02-16T03:40:11;100416.56;;;6.57;75.20
26531;BME280;14201;43.188;24.160;2024-02-16T03:42:38;100417.03;;;6.39;76.13
26531;BME280;14201;43.188;24.160;2024-02-16T03:45:03;100418.63;;;6.37;76.72
26531;BME280;14201;43.188;24.160;2024-02-16T03:47:29;100414.34;;;6.38;77.27
26531;BME280;14201;43.188;24.160;2024-02-16T03:49:54;100428.16;;;6.50;77.66
26531;BME280;14201;43.188;24.160;2024-02-16T03:52:20;100434.31;;;6.64;76.20
26531;BME280;14201;43.188;24.160;2024-02-16T03:54:45;100435.84;;;6.37;76.96
26531;BME280;14201;43.188;24.160;2024-02-16T03:57:13;100435.31;;;6.17;77.52
26531;BME280;14201;43.188;24.160;2024-02-16T03:59:39;100442.94;;;6.27;77.21
26531;BME280;14201;43.188;24.160;2024-02-16T04:02:04;100434.84;;;6.35;77.26
26531;BME280;14201;43.188;24.160;2024-02-16T04:04:30;100440.00;;;6.46;78.10
26531;BME280;14201;43.188;24.160;2024-02-16T04:06:55;100435.69;;;6.47;77.88
26531;BME280;14201;43.188;24.160;2024-02-16T04:09:20;100433.25;;;6.37;78.44
26531;BME280;14201;43.188;24.160;2024-02-16T04:11:46;100426.28;;;6.36;77.12
26531;BME280;14201;43.188;24.160;2024-02-16T04:14:11;100441.50;;;6.19;77.62
26531;BME280;14201;43.188;24.160;2024-02-16T04:16:37;100451.59;;;6.40;78.28
26531;BME280;14201;43.188;24.160;2024-02-16T04:19:02;100440.31;;;6.51;77.22
26531;BME280;14201;43.188;24.160;2024-02-16T04:21:28;100438.41;;;6.48;76.75
26531;BME280;14201;43.188;24.160;2024-02-16T04:23:53;100440.22;;;6.38;77.62
26531;BME280;14201;43.188;24.160;2024-02-16T04:26:18;100446.06;;;6.35;78.08
26531;BME280;14201;43.188;24.160;2024-02-16T04:28:44;100445.53;;;6.16;77.98
26531;BME280;14201;43.188;24.160;2024-02-16T04:31:09;100450.25;;;6.21;78.61
26531;BME280;14201;43.188;24.160;2024-02-16T04:33:35;100443.81;;;5.92;80.23
26531;BME280;14201;43.188;24.160;2024-02-16T04:36:00;100443.63;;;6.13;79.56
26531;BME280;14201;43.188;24.160;2024-02-16T04:38:25;100449.91;;;6.28;79.08
26531;BME280;14201;43.188;24.160;2024-02-16T04:40:51;100451.03;;;6.44;77.79
26531;BME280;14201;43.188;24.160;2024-02-16T04:43:16;100451.03;;;6.44;77.53
26531;BME280;14201;43.188;24.160;2024-02-16T04:45:42;100445.06;;;6.45;77.75
26531;BME280;14201;43.188;24.160;2024-02-16T04:48:08;100447.78;;;6.35;77.98
26531;BME280;14201;43.188;24.160;2024-02-16T04:50:34;100448.69;;;6.11;78.10
26531;BME280;14201;43.188;24.160;2024-02-16T04:53:00;100451.13;;;6.34;77.76
26531;BME280;14201;43.188;24.160;2024-02-16T04:55:28;100448.31;;;6.42;77.82
26531;BME280;14201;43.188;24.160;2024-02-16T04:57:55;100447.63;;;6.45;78.11
26531;BME280;14201;43.188;24.160;2024-02-16T05:00:20;100450.09;;;6.55;78.27
26531;BME280;14201;43.188;24.160;2024-02-16T05:02:46;100449.41;;;6.58;78.44
26531;BME280;14201;43.188;24.160;2024-02-16T05:05:11;100454.47;;;6.56;78.32
26531;BME280;14201;43.188;24.160;2024-02-16T05:07:37;100457.03;;;6.68;78.23
26531;BME280;14201;43.188;24.160;2024-02-16T05:10:02;100455.00;;;6.76;77.01
26531;BME280;14201;43.188;24.160;2024-02-16T05:12:28;100448.50;;;6.69;77.04
26531;BME280;14201;43.188;24.160;2024-02-16T05:14:54;100451.75;;;6.66;77.09
26531;BME280;14201;43.188;24.160;2024-02-16T05:17:19;100449.97;;;6.65;77.59
26531;BME280;14201;43.188;24.160;2024-02-16T05:19:46;100446.69;;;6.68;77.85
26531;BME280;14201;43.188;24.160;2024-02-16T05:22:11;100451.72;;;6.78;77.79
26531;BME280;14201;43.188;24.160;2024-02-16T05:24:37;100455.00;;;6.76;78.28
26531;BME280;14201;43.188;24.160;2024-02-16T05:27:02;100449.59;;;6.73;77.68
26531;BME280;14201;43.188;24.160;2024-02-16T05:29:28;100452.56;;;6.65;77.82
26531;BME280;14201;43.188;24.160;2024-02-16T05:31:53;100457.03;;;6.68;77.47
26531;BME280;14201;43.188;24.160;2024-02-16T05:34:19;100470.09;;;6.69;76.92
26531;BME280;14201;43.188;24.160;2024-02-16T05:36:44;100466.72;;;6.59;77.47
26531;BME280;14201;43.188;24.160;2024-02-16T05:39:10;100473.03;;;6.62;77.66
26531;BME280;14201;43.188;24.160;2024-02-16T05:41:45;100473.50;;;6.57;77.56
26531;BME280;14201;43.188;24.160;2024-02-16T05:44:11;100469.91;;;6.55;78.32
26531;BME280;14201;43.188;24.160;2024-02-16T05:46:36;100471.56;;;6.66;77.41
26531;BME280;14201;43.188;24.160;2024-02-16T05:49:03;100483.25;;;6.73;76.86
26531;BME280;14201;43.188;24.160;2024-02-16T05:51:36;100483.03;;;6.69;76.79
26531;BME280;14201;43.188;24.160;2024-02-16T05:54:02;100478.63;;;6.68;77.47
26531;BME280;14201;43.188;24.160;2024-02-16T05:56:27;100484.06;;;6.72;77.94
26531;BME280;14201;43.188;24.160;2024-02-16T05:58:53;100480.19;;;6.78;78.28
26531;BME280;14201;43.188;24.160;2024-02-16T06:01:19;100490.75;;;6.93;78.47
26531;BME280;14201;43.188;24.160;2024-02-16T06:03:44;100489.63;;;6.89;79.05
26531;BME280;14201;43.188;24.160;2024-02-16T06:06:10;100497.50;;;6.91;79.59
26531;BME280;14201;43.188;24.160;2024-02-16T06:08:35;100493.03;;;6.65;80.31
26531;BME280;14201;43.188;24.160;2024-02-16T06:11:00;100505.34;;;6.56;80.62
26531;BME280;14201;43.188;24.160;2024-02-16T06:13:27;100493.97;;;6.65;80.24
26531;BME280;14201;43.188;24.160;2024-02-16T06:15:54;100492.81;;;6.74;80.53
26531;BME280;14201;43.188;24.160;2024-02-16T06:18:20;100489.03;;;6.57;81.71
26531;BME280;14201;43.188;24.160;2024-02-16T06:20:45;100493.72;;;6.74;81.09
26531;BME280;14201;43.188;24.160;2024-02-16T06:23:11;100496.19;;;6.84;81.43
26531;BME280;14201;43.188;24.160;2024-02-16T06:25:36;100500.41;;;6.96;81.86
26531;BME280;14201;43.188;24.160;2024-02-16T06:28:02;100496.28;;;6.86;82.15
26531;BME280;14201;43.188;24.160;2024-02-16T06:30:28;100493.13;;;7.15;82.22
26531;BME280;14201;43.188;24.160;2024-02-16T06:32:53;100493.66;;;7.23;80.68
26531;BME280;14201;43.188;24.160;2024-02-16T06:35:20;100488.13;;;7.05;80.12
26531;BME280;14201;43.188;24.160;2024-02-16T06:37:45;100483.34;;;7.36;79.79
26531;BME280;14201;43.188;24.160;2024-02-16T06:40:11;100479.03;;;7.48;78.28
26531;BME280;14201;43.188;24.160;2024-02-16T06:42:37;100477.03;;;7.44;78.12
26531;BME280;14201;43.188;24.160;2024-02-16T06:45:02;100486.22;;;7.53;76.33
26531;BME280;14201;43.188;24.160;2024-02-16T06:47:33;100488.81;;;7.27;77.38
26531;BME280;14201;43.188;24.160;2024-02-16T06:49:58;100487.75;;;7.37;77.57
26531;BME280;14201;43.188;24.160;2024-02-16T06:52:23;100495.78;;;7.54;77.79
26531;BME280;14201;43.188;24.160;2024-02-16T06:54:49;100504.06;;;7.11;80.35
26531;BME280;14201;43.188;24.160;2024-02-16T06:57:15;100509.88;;;6.95;81.51
26531;BME280;14201;43.188;24.160;2024-02-16T06:59:40;100507.31;;;6.83;83.75
26531;BME280;14201;43.188;24.160;2024-02-16T07:02:06;100507.41;;;6.97;84.35
26531;BME280;14201;43.188;24.160;2024-02-16T07:04:32;100510.72;;;7.07;84.64
26531;BME280;14201;43.188;24.160;2024-02-16T07:06:57;100519.81;;;7.26;83.87
26531;BME280;14201;43.188;24.160;2024-02-16T07:09:23;100523.81;;;7.34;83.43
26531;BME280;14201;43.188;24.160;2024-02-16T07:11:48;100521.41;;;7.49;82.22
26531;BME280;14201;43.188;24.160;2024-02-16T07:14:15;100513.44;;;7.59;80.95
26531;BME280;14201;43.188;24.160;2024-02-16T07:16:41;100509.88;;;7.71;80.74
26531;BME280;14201;43.188;24.160;2024-02-16T07:19:07;100510.19;;;7.62;80.62
26531;BME280;14201;43.188;24.160;2024-02-16T07:21:32;100514.84;;;7.67;80.91
26531;BME280;14201;43.188;24.160;2024-02-16T07:23:58;100511.47;;;8.07;79.62
26531;BME280;14201;43.188;24.160;2024-02-16T07:26:23;100511.47;;;8.20;78.92
26531;BME280;14201;43.188;24.160;2024-02-16T07:28:49;100518.34;;;8.33;75.86
26531;BME280;14201;43.188;24.160;2024-02-16T07:31:15;100508.88;;;8.34;76.12
26531;BME280;14201;43.188;24.160;2024-02-16T07:33:42;100497.78;;;8.09;76.23
26531;BME280;14201;43.188;24.160;2024-02-16T07:36:08;100513.47;;;8.38;75.09
26531;BME280;14201;43.188;24.160;2024-02-16T07:38:33;100516.78;;;8.48;75.28
26531;BME280;14201;43.188;24.160;2024-02-16T07:40:59;100514.41;;;8.65;73.48
26531;BME280;14201;43.188;24.160;2024-02-16T07:43:27;100517.25;;;8.83;72.98
26531;BME280;14201;43.188;24.160;2024-02-16T07:45:52;100514.03;;;8.87;72.98
26531;BME280;14201;43.188;24.160;2024-02-16T07:48:22;100506.59;;;8.78;73.81
26531;BME280;14201;43.188;24.160;2024-02-16T07:50:48;100515.34;;;8.94;74.81
26531;BME280;14201;43.188;24.160;2024-02-16T07:53:15;100520.97;;;9.15;73.57
26531;BME280;14201;43.188;24.160;2024-02-16T07:55:41;100523.88;;;9.34;72.47
26531;BME280;14201;43.188;24.160;2024-02-16T07:58:07;100521.38;;;9.36;72.69
26531;BME280;14201;43.188;24.160;2024-02-16T08:00:34;100522.16;;;9.48;72.35
26531;BME280;14201;43.188;24.160;2024-02-16T08:03:00;100525.69;;;9.63;72.10
26531;BME280;14201;43.188;24.160;2024-02-16T08:05:25;100519.69;;;9.79;71.56
26531;BME280;14201;43.188;24.160;2024-02-16T08:07:52;100524.72;;;9.91;71.01
26531;BME280;14201;43.188;24.160;2024-02-16T08:10:21;100522.94;;;10.05;70.28
26531;BME280;14201;43.188;24.160;2024-02-16T08:12:46;100514.16;;;10.18;69.40
26531;BME280;14201;43.188;24.160;2024-02-16T08:15:12;100524.38;;;10.30;69.51
26531;BME280;14201;43.188;24.160;2024-02-16T08:17:39;100506.97;;;10.43;69.45
26531;BME280;14201;43.188;24.160;2024-02-16T08:20:05;100506.88;;;10.42;68.91
26531;BME280;14201;43.188;24.160;2024-02-16T08:22:31;100520.75;;;10.57;67.28
26531;BME280;14201;43.188;24.160;2024-02-16T08:24:58;100526.84;;;10.73;64.13
26531;BME280;14201;43.188;24.160;2024-02-16T08:27:24;100522.78;;;10.78;62.64
26531;BME280;14201;43.188;24.160;2024-02-16T08:29:50;100527.34;;;10.82;63.99
26531;BME280;14201;43.188;24.160;2024-02-16T08:32:17;100532.16;;;10.91;63.02
26531;BME280;14201;43.188;24.160;2024-02-16T08:34:43;100525.03;;;11.19;60.47
26531;BME280;14201;43.188;24.160;2024-02-16T08:37:09;100534.06;;;11.26;61.31
26531;BME280;14201;43.188;24.160;2024-02-16T08:39:38;100528.03;;;11.11;62.66
26531;BME280;14201;43.188;24.160;2024-02-16T08:42:03;100499.84;;;11.03;63.16
26531;BME280;14201;43.188;24.160;2024-02-16T08:44:29;100537.50;;;11.25;60.72
26531;BME280;14201;43.188;24.160;2024-02-16T08:46:55;100534.34;;;11.31;58.02
26531;BME280;14201;43.188;24.160;2024-02-16T08:49:20;100533.09;;;11.24;58.28
26531;BME280;14201;43.188;24.160;2024-02-16T08:51:47;100530.03;;;11.15;59.61
26531;BME280;14201;43.188;24.160;2024-02-16T08:54:13;100536.53;;;11.23;60.12
26531;BME280;14201;43.188;24.160;2024-02-16T08:56:39;100539.00;;;11.36;60.13
26531;BME280;14201;43.188;24.160;2024-02-16T08:59:05;100539.31;;;11.42;60.93
26531;BME280;14201;43.188;24.160;2024-02-16T09:01:35;100547.28;;;11.46;61.60
26531;BME280;14201;43.188;24.160;2024-02-16T09:04:02;100544.38;;;11.56;61.57
26531;BME280;14201;43.188;24.160;2024-02-16T09:06:28;100541.91;;;11.59;62.32
26531;BME280;14201;43.188;24.160;2024-02-16T09:08:55;100543.03;;;11.80;59.42
26531;BME280;14201;43.188;24.160;2024-02-16T09:11:22;100542.31;;;11.83;60.58
26531;BME280;14201;43.188;24.160;2024-02-16T09:13:47;100547.28;;;11.95;59.93
26531;BME280;14201;43.188;24.160;2024-02-16T09:16:13;100542.69;;;12.07;59.63
26531;BME280;14201;43.188;24.160;2024-02-16T09:18:39;100541.91;;;12.26;57.68
26531;BME280;14201;43.188;24.160;2024-02-16T09:21:05;100546.00;;;12.21;56.30
26531;BME280;14201;43.188;24.160;2024-02-16T09:23:35;100548.28;;;12.31;57.01
26531;BME280;14201;43.188;24.160;2024-02-16T09:26:01;100541.25;;;12.30;55.12
26531;BME280;14201;43.188;24.160;2024-02-16T09:28:30;100541.53;;;12.36;58.58
26531;BME280;14201;43.188;24.160;2024-02-16T09:30:56;100544.47;;;12.60;55.34
26531;BME280;14201;43.188;24.160;2024-02-16T09:33:22;100548.19;;;12.66;57.26
26531;BME280;14201;43.188;24.160;2024-02-16T09:35:50;100547.06;;;12.78;58.12
26531;BME280;14201;43.188;24.160;2024-02-16T09:38:16;100545.13;;;12.92;55.23
26531;BME280;14201;43.188;24.160;2024-02-16T09:40:42;100553.13;;;12.95;57.49
26531;BME280;14201;43.188;24.160;2024-02-16T09:43:07;100546.41;;;13.20;55.05
26531;BME280;14201;43.188;24.160;2024-02-16T09:45:33;100550.16;;;12.70;54.66
26531;BME280;14201;43.188;24.160;2024-02-16T09:47:59;100548.81;;;12.78;55.97
26531;BME280;14201;43.188;24.160;2024-02-16T09:50:25;100551.88;;;12.87;56.13
26531;BME280;14201;43.188;24.160;2024-02-16T09:52:54;100540.72;;;12.91;55.39
26531;BME280;14201;43.188;24.160;2024-02-16T09:55:21;100538.53;;;13.00;56.71
26531;BME280;14201;43.188;24.160;2024-02-16T09:57:58;100538.34;;;13.15;56.16
26531;BME280;14201;43.188;24.160;2024-02-16T10:00:25;100531.13;;;13.29;55.46
26531;BME280;14201;43.188;24.160;2024-02-16T10:02:50;100527.84;;;13.33;55.99
26531;BME280;14201;43.188;24.160;2024-02-16T10:05:18;100527.16;;;13.57;52.72
26531;BME280;14201;43.188;24.160;2024-02-16T10:07:45;100525.75;;;13.44;53.46
26531;BME280;14201;43.188;24.160;2024-02-16T10:10:24;100523.19;;;13.46;54.42
26531;BME280;14201;43.188;24.160;2024-02-16T10:13:03;100517.59;;;13.57;54.29
26531;BME280;14201;43.188;24.160;2024-02-16T10:15:30;100514.72;;;13.71;54.54
26531;BME280;14201;43.188;24.160;2024-02-16T10:18:02;100512.06;;;13.90;53.24
26531;BME280;14201;43.188;24.160;2024-02-16T10:20:29;100517.41;;;13.93;52.03
26531;BME280;14201;43.188;24.160;2024-02-16T10:23:11;100513.66;;;13.87;51.50
26531;BME280;14201;43.188;24.160;2024-02-16T10:25:40;100510.16;;;13.47;50.97
26531;BME280;14201;43.188;24.160;2024-02-16T10:28:10;100508.78;;;13.55;50.87
26531;BME280;14201;43.188;24.160;2024-02-16T10:30:41;100507.00;;;13.54;51.69
26531;BME280;14201;43.188;24.160;2024-02-16T10:33:10;100491.63;;;13.43;53.78
26531;BME280;14201;43.188;24.160;2024-02-16T10:35:38;100492.47;;;13.61;54.73
26531;BME280;14201;43.188;24.160;2024-02-16T10:38:07;100485.91;;;13.71;54.11
26531;BME280;14201;43.188;24.160;2024-02-16T10:40:39;100495.31;;;13.87;51.02
26531;BME280;14201;43.188;24.160;2024-02-16T10:43:06;100477.69;;;13.83;51.63
26531;BME280;14201;43.188;24.160;2024-02-16T10:45:34;100481.75;;;13.97;52.69
26531;BME280;14201;43.188;24.160;2024-02-16T10:48:01;100481.00;;;13.99;50.07
26531;BME280;14201;43.188;24.160;2024-02-16T10:50:27;100475.41;;;14.11;49.58
26531;BME280;14201;43.188;24.160;2024-02-16T10:52:55;100470.75;;;14.27;50.42
26531;BME280;14201;43.188;24.160;2024-02-16T10:55:22;100469.38;;;14.14;50.76
26531;BME280;14201;43.188;24.160;2024-02-16T10:57:49;100477.34;;;14.38;51.79
26531;BME280;14201;43.188;24.160;2024-02-16T11:00:16;100470.72;;;14.69;50.35
26531;BME280;14201;43.188;24.160;2024-02-16T11:05:18;100464.03;;;14.77;48.37
26531;BME280;14201;43.188;24.160;2024-02-16T11:07:47;100464.91;;;14.76;47.75
26531;BME280;14201;43.188;24.160;2024-02-16T11:10:13;100464.09;;;14.56;47.52
26531;BME280;14201;43.188;24.160;2024-02-16T11:12:43;100453.94;;;14.64;48.71
26531;BME280;14201;43.188;24.160;2024-02-16T11:15:13;100455.50;;;14.81;46.83
26531;BME280;14201;43.188;24.160;2024-02-16T11:17:39;100458.88;;;14.35;48.00
26531;BME280;14201;43.188;24.160;2024-02-16T11:20:06;100458.75;;;14.32;49.00
26531;BME280;14201;43.188;24.160;2024-02-16T11:22:36;100457.66;;;14.27;49.00
26531;BME280;14201;43.188;24.160;2024-02-16T11:25:05;100442.97;;;14.09;48.24
26531;BME280;14201;43.188;24.160;2024-02-16T11:27:31;100451.25;;;14.41;48.13
26531;BME280;14201;43.188;24.160;2024-02-16T11:29:58;100446.84;;;14.40;48.37
26531;BME280;14201;43.188;24.160;2024-02-16T11:32:25;100445.88;;;14.15;48.24
26531;BME280;14201;43.188;24.160;2024-02-16T11:34:51;100444.72;;;14.52;50.27
26531;BME280;14201;43.188;24.160;2024-02-16T11:37:17;100420.09;;;14.70;50.44
26531;BME280;14201;43.188;24.160;2024-02-16T11:39:43;100439.16;;;15.12;48.84
26531;BME280;14201;43.188;24.160;2024-02-16T11:42:19;100438.13;;;15.33;48.63
26531;BME280;14201;43.188;24.160;2024-02-16T11:44:53;100432.13;;;15.61;48.93
26531;BME280;14201;43.188;24.160;2024-02-16T11:47:20;100435.09;;;15.70;46.74
26531;BME280;14201;43.188;24.160;2024-02-16T11:52:28;100428.41;;;16.06;45.24
26531;BME280;14201;43.188;24.160;2024-02-16T11:54:54;100423.22;;;16.07;47.05
26531;BME280;14201;43.188;24.160;2024-02-16T11:57:20;100430.25;;;16.36;46.87
26531;BME280;14201;43.188;24.160;2024-02-16T11:59:46;100421.31;;;16.58;46.78
26531;BME280;14201;43.188;24.160;2024-02-16T12:02:17;100430.66;;;16.78;45.82
26531;BME280;14201;43.188;24.160;2024-02-16T12:04:46;100427.41;;;16.85;45.50
26531;BME280;14201;43.188;24.160;2024-02-16T12:07:13;100424.81;;;16.58;42.72
26531;BME280;14201;43.188;24.160;2024-02-16T12:09:40;100418.34;;;16.20;43.09
26531;BME280;14201;43.188;24.160;2024-02-16T12:12:06;100407.72;;;16.17;42.51
26531;BME280;14201;43.188;24.160;2024-02-16T12:14:31;100416.19;;;15.55;43.64
26531;BME280;14201;43.188;24.160;2024-02-16T12:16:58;100406.47;;;15.28;43.23
26531;BME280;14201;43.188;24.160;2024-02-16T12:19:25;100406.03;;;14.68;43.55
26531;BME280;14201;43.188;24.160;2024-02-16T12:21:52;100405.66;;;14.59;44.36
26531;BME280;14201;43.188;24.160;2024-02-16T12:24:19;100395.44;;;14.89;45.42
26531;BME280;14201;43.188;24.160;2024-02-16T12:26:45;100403.66;;;14.53;43.71
26531;BME280;14201;43.188;24.160;2024-02-16T12:29:12;100404.44;;;14.50;45.11
26531;BME280;14201;43.188;24.160;2024-02-16T12:31:42;100413.84;;;14.45;46.26
26531;BME280;14201;43.188;24.160;2024-02-16T12:34:10;100404.31;;;14.47;46.06
26531;BME280;14201;43.188;24.160;2024-02-16T12:36:40;100407.13;;;14.29;47.23
26531;BME280;14201;43.188;24.160;2024-02-16T12:39:09;100402.94;;;14.12;48.22
26531;BME280;14201;43.188;24.160;2024-02-16T12:41:38;100408.72;;;14.26;47.01
26531;BME280;14201;43.188;24.160;2024-02-16T12:44:04;100404.84;;;13.95;47.85
26531;BME280;14201;43.188;24.160;2024-02-16T12:46:31;100409.28;;;13.96;48.54